Terminal Aerodrome Forecast
Issued by NWS

Home | Current Version | Previous Version | Text Only | Print | Product List | Glossary On
Versions: 1 2 3 4 5 6 7 8 9 10 11 12 13 14 15 16 17 18
504
FTUS43 KMQT 040858 AAA
TAFSAW
TAF AMD
KSAW 040858Z 0409/0506 19003KT P6SM OVC028
      TEMPO 0409/0412 SCT028 OVC040
     FM041400 19007KT P6SM OVC035
     FM041900 19008KT 3SM -SN OVC015
     FM042100 18007KT 1 1/2SM -SN OVC010
     FM050000 18006KT 2SM -SN OVC008
     FM050300 20006KT P6SM OVC008=

USA.gov is the U.S. government's official web portal to all federal, state and local government web resources and services.